Time;durP1;ratioP1;P1;durP2;ratioP2;P2;SDS_P1;SDS_P2;PMS_P1;PMS_P2;Temp;Humidity;BMP_temperature;BMP_pressure;BME280_temperature;BME280_humidity;BME280_pressure;Samples;Min_cycle;Max_cycle;Signal;HPM_P1;HPM_P2
2024/03/15 00:03:51;;;;;;;3.25;1.38;;;;;;;;;;10224654;28;20106;-75
2024/03/15 00:08:55;;;;;;;3.85;1.40;;;;;;;;;;10234858;28;20037;-76
2024/03/15 00:13:57;;;;;;;4.07;1.63;;;;;;;;;;10235939;28;20496;-77
2024/03/15 00:19:04;;;;;;;4.07;1.63;;;;;;;;;;10233241;28;20057;-76
2024/03/15 00:24:07;;;;;;;4.32;1.63;;;;;;;;;;10231428;28;20042;-75
2024/03/15 00:29:10;;;;;;;4.53;1.90;;;;;;;;;;10232167;28;20500;-77
2024/03/15 00:34:14;;;;;;;4.15;1.45;;;;;;;;;;10234504;28;20066;-76
2024/03/15 00:39:20;;;;;;;4.40;1.63;;;;;;;;;;10240595;28;20074;-75
2024/03/15 00:44:23;;;;;;;2.28;1.48;;;;;;;;;;10237138;28;20042;-75
2024/03/15 00:49:26;;;;;;;3.55;1.50;;;;;;;;;;10236225;28;20062;-73
2024/03/15 00:54:29;;;;;;;3.65;2.08;;;;;;;;;;10233006;28;20077;-75
2024/03/15 00:59:32;;;;;;;0.53;0.53;;;;;;;;;;10230249;28;20043;-75
2024/03/15 01:04:35;;;;;;;0.90;0.40;;;;;;;;;;10231519;28;20042;-76
2024/03/15 01:09:38;;;;;;;3.60;1.30;;;;;;;;;;10230072;28;20249;-76
2024/03/15 01:14:41;;;;;;;2.60;1.60;;;;;;;;;;10227577;28;20043;-75
2024/03/15 01:19:45;;;;;;;1.38;1.10;;;;;;;;;;10230086;28;20352;-75
2024/03/15 01:24:50;;;;;;;3.85;1.85;;;;;;;;;;10215463;28;20399;-76
2024/03/15 01:29:54;;;;;;;2.83;1.73;;;;;;;;;;10232272;28;20451;-76
2024/03/15 01:34:57;;;;;;;3.53;1.48;;;;;;;;;;10233114;28;20050;-76
2024/03/15 01:40:00;;;;;;;2.85;1.38;;;;;;;;;;10234050;28;20547;-76
2024/03/15 01:45:06;;;;;;;2.08;1.10;;;;;;;;;;10233621;28;20049;-77
2024/03/15 01:50:10;;;;;;;1.70;1.00;;;;;;;;;;10222449;28;20055;-77
2024/03/15 01:55:14;;;;;;;2.38;1.15;;;;;;;;;;10233898;28;20162;-77
2024/03/15 02:00:18;;;;;;;2.08;1.42;;;;;;;;;;10225243;28;20500;-77
2024/03/15 02:05:22;;;;;;;2.13;1.00;;;;;;;;;;10240744;28;20067;-78
2024/03/15 02:10:26;;;;;;;0.60;0.60;;;;;;;;;;10237977;28;20310;-77
2024/03/15 02:15:29;;;;;;;0.88;0.40;;;;;;;;;;10240235;28;20054;-76
2024/03/15 02:20:34;;;;;;;0.90;0.85;;;;;;;;;;10241335;28;20504;-77
2024/03/15 02:25:39;;;;;;;1.08;0.50;;;;;;;;;;10239445;28;20051;-76
2024/03/15 02:30:45;;;;;;;1.17;1.05;;;;;;;;;;10225954;28;20389;-77
2024/03/15 02:35:47;;;;;;;1.17;0.60;;;;;;;;;;10242253;28;20074;-77
2024/03/15 02:40:50;;;;;;;0.98;0.70;;;;;;;;;;10236763;28;20051;-77
2024/03/15 02:45:56;;;;;;;0.57;0.50;;;;;;;;;;10250503;28;20102;-74
2024/03/15 02:51:01;;;;;;;1.60;0.80;;;;;;;;;;10247530;28;20062;-75
2024/03/15 02:56:06;;;;;;;0.98;0.88;;;;;;;;;;10239382;28;20528;-76
2024/03/15 03:01:09;;;;;;;0.82;0.80;;;;;;;;;;10224694;28;20101;-77
2024/03/15 03:06:13;;;;;;;1.70;0.85;;;;;;;;;;10238361;28;20047;-75
2024/03/15 03:11:17;;;;;;;1.17;0.80;;;;;;;;;;10237301;28;20047;-76
2024/03/15 03:16:21;;;;;;;1.05;0.65;;;;;;;;;;10236444;28;20050;-77
2024/03/15 03:21:24;;;;;;;2.05;0.90;;;;;;;;;;10236063;28;20043;-77
2024/03/15 03:26:29;;;;;;;3.75;1.08;;;;;;;;;;10226553;28;20055;-76
2024/03/15 03:31:33;;;;;;;2.75;0.90;;;;;;;;;;10231386;28;20449;-76
2024/03/15 03:36:37;;;;;;;0.70;0.40;;;;;;;;;;10233533;28;20134;-74
2024/03/15 03:41:40;;;;;;;2.38;0.80;;;;;;;;;;10238790;28;20518;-74
2024/03/15 03:46:45;;;;;;;1.15;0.60;;;;;;;;;;10235052;28;20078;-75
2024/03/15 03:51:48;;;;;;;2.03;0.90;;;;;;;;;;10237710;28;20040;-74
2024/03/15 03:56:52;;;;;;;1.60;1.02;;;;;;;;;;10220706;28;20052;-74
2024/03/15 04:01:55;;;;;;;2.67;0.80;;;;;;;;;;10237039;28;20139;-76
2024/03/15 04:06:58;;;;;;;1.67;0.93;;;;;;;;;;10234341;28;20122;-75
2024/03/15 04:12:02;;;;;;;;;;;;;;;;;;10233070;28;20118;-75
2024/03/15 04:17:07;;;;;;;1.00;0.70;;;;;;;;;;10254525;28;19965;-76
2024/03/15 04:22:10;;;;;;;2.63;1.27;;;;;;;;;;10234653;28;20518;-75
2024/03/15 04:27:14;;;;;;;1.95;1.13;;;;;;;;;;10220784;28;20047;-75
2024/03/15 04:32:19;;;;;;;2.87;1.00;;;;;;;;;;10237907;28;20047;-77
2024/03/15 04:37:24;;;;;;;2.80;1.17;;;;;;;;;;10234862;28;20054;-78
2024/03/15 04:42:32;;;;;;;2.25;1.13;;;;;;;;;;10237250;28;20047;-77
2024/03/15 04:47:35;;;;;;;3.08;1.25;;;;;;;;;;10232937;28;20559;-76
2024/03/15 04:52:39;;;;;;;2.17;1.20;;;;;;;;;;10253959;28;20054;-75
2024/03/15 04:57:45;;;;;;;2.63;1.00;;;;;;;;;;10241176;28;20537;-77
2024/03/15 05:02:48;;;;;;;2.95;1.08;;;;;;;;;;10233128;28;20043;-76
2024/03/15 05:07:53;;;;;;;2.03;1.10;;;;;;;;;;10236980;28;20524;-76
2024/03/15 05:12:56;;;;;;;3.58;1.20;;;;;;;;;;10236670;28;20058;-76
2024/03/15 05:17:59;;;;;;;2.10;1.30;;;;;;;;;;10221531;28;20050;-76
2024/03/15 05:23:06;;;;;;;7.73;1.27;;;;;;;;;;10242547;28;20177;-75
2024/03/15 05:28:09;;;;;;;1.95;0.75;;;;;;;;;;10234901;28;20138;-75
2024/03/15 05:33:12;;;;;;;1.88;1.23;;;;;;;;;;10237019;28;20054;-75
2024/03/15 05:38:16;;;;;;;1.40;0.80;;;;;;;;;;10225802;28;20491;-76
2024/03/15 05:43:21;;;;;;;1.77;1.17;;;;;;;;;;10241767;28;20461;-74
2024/03/15 05:48:25;;;;;;;2.25;1.20;;;;;;;;;;10239734;28;20170;-75
2024/03/15 05:53:30;;;;;;;1.45;1.00;;;;;;;;;;10246516;28;20227;-76
2024/03/15 05:58:32;;;;;;;2.53;1.00;;;;;;;;;;10249125;28;20075;-77
2024/03/15 06:03:35;;;;;;;2.85;1.33;;;;;;;;;;10243835;28;20134;-76
2024/03/15 06:08:38;;;;;;;7.65;1.20;;;;;;;;;;10240142;28;20591;-77
2024/03/15 06:13:42;;;;;;;4.95;1.75;;;;;;;;;;10238729;28;20073;-75
2024/03/15 06:18:46;;;;;;;1.80;1.00;;;;;;;;;;10240028;28;20057;-75
2024/03/15 06:23:49;;;;;;;2.97;1.00;;;;;;;;;;10241723;28;20376;-77
2024/03/15 06:28:53;;;;;;;1.45;1.10;;;;;;;;;;10239591;28;20143;-75
2024/03/15 06:34:02;;;;;;;2.65;1.30;;;;;;;;;;10242478;28;20484;-75
2024/03/15 06:39:19;;;;;;;1.60;0.77;;;;;;;;;;10240129;28;20168;-73
2024/03/15 06:44:25;;;;;;;1.75;0.98;;;;;;;;;;10240403;28;20487;-75
2024/03/15 06:49:43;;;;;;;2.03;1.30;;;;;;;;;;10240288;28;20060;-75
2024/03/15 06:54:47;;;;;;;2.60;1.17;;;;;;;;;;10238075;28;20050;-75
2024/03/15 06:59:51;;;;;;;4.15;1.85;;;;;;;;;;10235545;28;20046;-75
2024/03/15 07:04:59;;;;;;;3.43;1.43;;;;;;;;;;10239797;28;20047;-75
2024/03/15 07:10:03;;;;;;;4.00;1.73;;;;;;;;;;10233933;28;20051;-76
2024/03/15 07:15:08;;;;;;;1.67;1.02;;;;;;;;;;10231565;28;20205;-76
2024/03/15 07:20:12;;;;;;;1.35;1.10;;;;;;;;;;10233042;28;20055;-76
2024/03/15 07:25:19;;;;;;;2.03;1.05;;;;;;;;;;10230320;28;20504;-76
2024/03/15 07:30:22;;;;;;;6.00;1.40;;;;;;;;;;10238915;28;20057;-76
2024/03/15 07:35:27;;;;;;;3.00;1.65;;;;;;;;;;10232241;28;20031;-75
2024/03/15 07:40:35;;;;;;;2.15;1.30;;;;;;;;;;10232137;28;20518;-75
2024/03/15 07:45:39;;;;;;;3.85;1.23;;;;;;;;;;10218220;28;20047;-78
2024/03/15 07:50:43;;;;;;;1.40;1.10;;;;;;;;;;10237535;28;20097;-76
2024/03/15 07:55:46;;;;;;;2.53;1.20;;;;;;;;;;10231748;28;20058;-76
2024/03/15 08:00:49;;;;;;;5.30;1.40;;;;;;;;;;10231278;28;20126;-76
2024/03/15 08:05:52;;;;;;;3.63;1.23;;;;;;;;;;10234000;28;20054;-76
2024/03/15 08:10:56;;;;;;;2.25;1.40;;;;;;;;;;10219282;28;20054;-74
2024/03/15 08:16:18;;;;;;;2.38;1.33;;;;;;;;;;10231982;28;20057;-75
2024/03/15 08:21:20;;;;;;;3.97;1.10;;;;;;;;;;10235572;28;20049;-76
2024/03/15 08:26:25;;;;;;;3.22;1.50;;;;;;;;;;10236525;28;22008;-77
2024/03/15 08:31:29;;;;;;;5.97;1.38;;;;;;;;;;10207968;28;20050;-75
2024/03/15 08:36:39;;;;;;;2.65;1.08;;;;;;;;;;10193410;28;20488;-76
2024/03/15 08:41:42;;;;;;;;;;;;;;;;;;10196072;28;22380;-76
2024/03/15 08:46:48;;;;;;;1.95;1.25;;;;;;;;;;10213146;28;19982;-76
2024/03/15 08:51:53;;;;;;;1.98;1.10;;;;;;;;;;10189879;28;20592;-74
2024/03/15 08:56:56;;;;;;;3.00;1.35;;;;;;;;;;10189415;28;20050;-75
2024/03/15 09:01:59;;;;;;;4.50;1.13;;;;;;;;;;10196216;28;20125;-75
2024/03/15 09:07:03;;;;;;;4.65;1.67;;;;;;;;;;10192513;28;20071;-75
2024/03/15 09:12:07;;;;;;;2.30;1.40;;;;;;;;;;10195732;28;20062;-75
2024/03/15 09:17:12;;;;;;;4.85;1.25;;;;;;;;;;10193487;28;20047;-76
2024/03/15 09:22:16;;;;;;;3.03;1.60;;;;;;;;;;10188291;28;20055;-78
2024/03/15 09:27:21;;;;;;;2.50;1.60;;;;;;;;;;10174346;28;20821;-77
2024/03/15 09:32:25;;;;;;;;;;;;;;;;;;10190380;28;20051;-76
2024/03/15 09:37:36;;;;;;;3.67;1.40;;;;;;;;;;10206404;28;19938;-76
2024/03/15 09:42:41;;;;;;;4.90;1.75;;;;;;;;;;10189150;28;20039;-75
2024/03/15 09:47:45;;;;;;;3.63;1.52;;;;;;;;;;10177506;28;20063;-77
2024/03/15 09:52:49;;;;;;;1.27;1.05;;;;;;;;;;10195250;28;20047;-75
2024/03/15 09:57:52;;;;;;;2.78;1.27;;;;;;;;;;10196373;28;20073;-76
2024/03/15 10:02:56;;;;;;;3.22;1.58;;;;;;;;;;10191250;28;20155;-78
2024/03/15 10:07:59;;;;;;;4.93;1.50;;;;;;;;;;10194177;28;20044;-79
2024/03/15 10:13:04;;;;;;;6.72;2.03;;;;;;;;;;10188969;28;20055;-77
2024/03/15 10:18:10;;;;;;;2.47;1.15;;;;;;;;;;10196241;28;20059;-77
2024/03/15 10:23:17;;;;;;;4.32;1.48;;;;;;;;;;10201625;28;20050;-76
2024/03/15 10:28:20;;;;;;;2.10;1.50;;;;;;;;;;10199157;28;20054;-76
2024/03/15 10:33:24;;;;;;;4.03;1.50;;;;;;;;;;10204425;28;20051;-76
2024/03/15 10:38:27;;;;;;;3.38;1.70;;;;;;;;;;10187607;28;20095;-76
2024/03/15 10:43:31;;;;;;;3.08;1.42;;;;;;;;;;10201397;28;20146;-76
2024/03/15 10:48:34;;;;;;;0.88;0.80;;;;;;;;;;10198420;28;20051;-75
2024/03/15 10:53:38;;;;;;;2.10;1.58;;;;;;;;;;10189302;28;20051;-76
2024/03/15 10:58:43;;;;;;;3.88;1.80;;;;;;;;;;10198594;28;20539;-77
2024/03/15 11:03:46;;;;;;;5.32;2.10;;;;;;;;;;10197683;28;20631;-77
2024/03/15 11:08:49;;;;;;;2.22;1.85;;;;;;;;;;10198497;28;20087;-76
2024/03/15 11:13:53;;;;;;;6.07;2.50;;;;;;;;;;10200132;28;20047;-77
2024/03/15 11:18:56;;;;;;;;;;;;;;;;;;10199909;28;20047;-76
2024/03/15 11:24:06;;;;;;;3.78;2.10;;;;;;;;;;10210338;28;19944;-74
2024/03/15 11:29:23;;;;;;;3.90;2.13;;;;;;;;;;10196287;28;20059;-74
2024/03/15 11:34:27;;;;;;;7.88;2.80;;;;;;;;;;10197081;28;20055;-76
2024/03/15 11:39:31;;;;;;;5.05;2.00;;;;;;;;;;10194061;28;20062;-76
2024/03/15 11:44:35;;;;;;;4.13;2.00;;;;;;;;;;10196329;28;20051;-76
2024/03/15 11:49:38;;;;;;;2.47;1.85;;;;;;;;;;10194204;28;20054;-75
2024/03/15 11:54:41;;;;;;;1.92;1.55;;;;;;;;;;10200418;28;20051;-75
2024/03/15 11:59:45;;;;;;;4.63;2.13;;;;;;;;;;10192522;28;20960;-76
2024/03/15 12:04:48;;;;;;;3.70;2.20;;;;;;;;;;10190541;28;20031;-76
2024/03/15 12:09:52;;;;;;;3.97;1.98;;;;;;;;;;10194276;28;20583;-74
2024/03/15 12:14:57;;;;;;;2.63;1.90;;;;;;;;;;10193273;28;20134;-76
2024/03/15 12:20:00;;;;;;;4.10;2.40;;;;;;;;;;10202865;28;20053;-75
2024/03/15 12:25:04;;;;;;;4.13;2.33;;;;;;;;;;10200297;28;20043;-78
2024/03/15 12:30:09;;;;;;;3.13;2.08;;;;;;;;;;10207859;28;20151;-76
2024/03/15 12:35:13;;;;;;;2.75;1.73;;;;;;;;;;10193746;28;20054;-76
2024/03/15 12:40:17;;;;;;;3.60;1.80;;;;;;;;;;10207554;28;20475;-76
2024/03/15 12:45:20;;;;;;;1.48;1.13;;;;;;;;;;10212634;28;20548;-75
2024/03/15 12:50:26;;;;;;;5.70;2.42;;;;;;;;;;10211278;28;20047;-75
2024/03/15 12:55:29;;;;;;;3.60;1.88;;;;;;;;;;10199450;28;20289;-75
2024/03/15 13:00:33;;;;;;;2.85;1.67;;;;;;;;;;10208960;28;20043;-76
2024/03/15 13:05:36;;;;;;;2.30;1.50;;;;;;;;;;10206913;28;20564;-75
2024/03/15 13:10:39;;;;;;;2.22;1.45;;;;;;;;;;10215199;28;20066;-75
2024/03/15 13:15:46;;;;;;;2.85;1.63;;;;;;;;;;10223734;28;20049;-73
2024/03/15 13:20:49;;;;;;;7.78;3.47;;;;;;;;;;10228793;28;20051;-79
2024/03/15 13:25:57;;;;;;;4.07;2.00;;;;;;;;;;10215010;28;20055;-78
2024/03/15 13:31:00;;;;;;;4.28;2.15;;;;;;;;;;10210170;28;20639;-78
2024/03/15 13:36:03;;;;;;;1.98;1.73;;;;;;;;;;10187507;28;20433;-81
2024/03/15 13:41:06;;;;;;;2.47;1.42;;;;;;;;;;10216356;28;20064;-78
2024/03/15 13:46:12;;;;;;;5.15;2.10;;;;;;;;;;10203659;28;20506;-77
2024/03/15 13:51:15;;;;;;;4.45;1.70;;;;;;;;;;10203487;28;20055;-77
2024/03/15 13:56:20;;;;;;;4.00;1.70;;;;;;;;;;10213205;28;20043;-76
2024/03/15 14:01:26;;;;;;;2.40;1.65;;;;;;;;;;10194535;28;20071;-77
2024/03/15 14:06:31;;;;;;;3.17;1.60;;;;;;;;;;10215296;28;20620;-77
2024/03/15 14:11:37;;;;;;;3.15;1.38;;;;;;;;;;10211599;28;20102;-77
2024/03/15 14:16:46;;;;;;;2.15;1.65;;;;;;;;;;10213275;28;20142;-77
2024/03/15 14:21:49;;;;;;;3.25;1.33;;;;;;;;;;10208270;28;20051;-76
2024/03/15 14:26:52;;;;;;;2.13;1.27;;;;;;;;;;10216440;28;20525;-78
2024/03/15 14:31:55;;;;;;;3.20;1.60;;;;;;;;;;10212674;28;20040;-78
2024/03/15 14:36:58;;;;;;;1.92;1.42;;;;;;;;;;10207096;28;20059;-76
2024/03/15 14:42:01;;;;;;;2.33;1.50;;;;;;;;;;10209739;28;20255;-76
2024/03/15 14:47:05;;;;;;;2.25;1.25;;;;;;;;;;10213830;28;20128;-76
2024/03/15 14:52:12;;;;;;;3.90;1.40;;;;;;;;;;10210247;28;20047;-77
2024/03/15 14:57:16;;;;;;;1.90;1.50;;;;;;;;;;10212556;28;20044;-76
2024/03/15 15:02:19;;;;;;;1.33;1.05;;;;;;;;;;10205423;28;20420;-76
2024/03/15 15:07:23;;;;;;;2.50;1.42;;;;;;;;;;10211826;28;20042;-76
2024/03/15 15:12:30;;;;;;;3.60;1.52;;;;;;;;;;10215079;28;20058;-76
2024/03/15 15:17:33;;;;;;;3.60;1.58;;;;;;;;;;10214349;28;20457;-76
2024/03/15 15:22:37;;;;;;;;;;;;;;;;;;10221930;28;20651;-75
2024/03/15 15:27:41;;;;;;;3.85;1.85;;;;;;;;;;10222236;28;20005;-77
2024/03/15 15:32:44;;;;;;;3.70;1.40;;;;;;;;;;10220602;28;20697;-76
2024/03/15 15:37:47;;;;;;;4.00;1.60;;;;;;;;;;10218851;28;20102;-76
2024/03/15 15:42:50;;;;;;;4.27;1.60;;;;;;;;;;10204759;28;20154;-76
2024/03/15 15:47:53;;;;;;;3.25;1.60;;;;;;;;;;10209451;28;20110;-75
2024/03/15 15:52:56;;;;;;;4.68;1.70;;;;;;;;;;10211088;28;20078;-76
2024/03/15 15:57:59;;;;;;;1.65;1.17;;;;;;;;;;10198126;28;20416;-76
2024/03/15 16:03:02;;;;;;;3.13;1.45;;;;;;;;;;10202169;28;20493;-76
2024/03/15 16:08:07;;;;;;;2.70;1.42;;;;;;;;;;10209421;28;20098;-77
2024/03/15 16:13:10;;;;;;;;;;;;;;;;;;10205998;28;20047;-75
2024/03/15 16:18:13;;;;;;;4.10;1.40;;;;;;;;;;10223212;28;20311;-76
2024/03/15 16:23:20;;;;;;;5.28;1.95;;;;;;;;;;10211457;28;20150;-76
2024/03/15 16:28:23;;;;;;;4.03;1.55;;;;;;;;;;10212706;28;20461;-76
2024/03/15 16:33:26;;;;;;;5.90;1.13;;;;;;;;;;10224285;28;20035;-76
2024/03/15 16:38:29;;;;;;;2.23;1.10;;;;;;;;;;10216608;28;20405;-75
2024/03/15 16:43:32;;;;;;;1.90;1.00;;;;;;;;;;10215591;28;20074;-76
2024/03/15 16:48:37;;;;;;;2.80;1.20;;;;;;;;;;10212570;28;20047;-76
2024/03/15 16:53:40;;;;;;;6.68;1.42;;;;;;;;;;10198001;28;20039;-74
2024/03/15 16:58:46;;;;;;;2.33;1.20;;;;;;;;;;10194010;28;20063;-75
2024/03/15 17:03:51;;;;;;;2.70;1.15;;;;;;;;;;10193977;28;20051;-76
2024/03/15 17:08:56;;;;;;;3.45;1.15;;;;;;;;;;10201368;28;20120;-76
2024/03/15 17:14:01;;;;;;;3.20;1.40;;;;;;;;;;10191028;28;20044;-76
2024/03/15 17:19:05;;;;;;;4.15;1.60;;;;;;;;;;10195401;28;20126;-76
2024/03/15 17:24:08;;;;;;;2.55;1.48;;;;;;;;;;10200347;28;20118;-77
2024/03/15 17:29:14;;;;;;;5.22;1.90;;;;;;;;;;10202919;28;20047;-76
2024/03/15 17:34:18;;;;;;;11.05;4.57;;;;;;;;;;10206839;28;20123;-77
2024/03/15 17:39:22;;;;;;;6.55;2.10;;;;;;;;;;10206765;28;20593;-76
2024/03/15 17:44:26;;;;;;;6.03;2.13;;;;;;;;;;10204922;28;20098;-76
2024/03/15 17:49:30;;;;;;;7.40;3.20;;;;;;;;;;10201968;28;20051;-76
2024/03/15 17:54:36;;;;;;;5.85;2.60;;;;;;;;;;10220118;28;20142;-76
2024/03/15 17:59:39;;;;;;;5.97;2.78;;;;;;;;;;10199964;28;20075;-76
2024/03/15 18:04:42;;;;;;;7.53;3.00;;;;;;;;;;10203703;28;20501;-76
2024/03/15 18:09:45;;;;;;;6.60;2.75;;;;;;;;;;10204135;28;20056;-77
2024/03/15 18:14:51;;;;;;;8.02;2.95;;;;;;;;;;10205062;28;20265;-76
2024/03/15 18:19:54;;;;;;;7.25;2.65;;;;;;;;;;10200439;28;20040;-76
2024/03/15 18:24:56;;;;;;;4.75;2.58;;;;;;;;;;10201254;28;20051;-77
2024/03/15 18:30:03;;;;;;;9.20;4.15;;;;;;;;;;10203043;28;20921;-77
2024/03/15 18:35:07;;;;;;;9.18;4.05;;;;;;;;;;10188375;28;20051;-76
2024/03/15 18:40:10;;;;;;;9.13;4.00;;;;;;;;;;10199486;28;20062;-77
2024/03/15 18:45:13;;;;;;;9.52;3.40;;;;;;;;;;10201836;28;20384;-75
2024/03/15 18:50:17;;;;;;;9.52;4.20;;;;;;;;;;10203150;28;20504;-76
2024/03/15 18:55:21;;;;;;;9.27;4.60;;;;;;;;;;10203912;28;20078;-77
2024/03/15 19:00:24;;;;;;;8.00;3.60;;;;;;;;;;10189335;28;20044;-76
2024/03/15 19:05:28;;;;;;;11.10;3.80;;;;;;;;;;10204274;28;20598;-75
2024/03/15 19:10:31;;;;;;;12.93;5.20;;;;;;;;;;10183809;28;20142;-76
2024/03/15 19:15:34;;;;;;;12.35;4.80;;;;;;;;;;10200866;28;20127;-75
2024/03/15 19:20:39;;;;;;;12.63;4.40;;;;;;;;;;10202216;28;20167;-77
2024/03/15 19:25:44;;;;;;;7.80;3.17;;;;;;;;;;10201528;28;20035;-78
2024/03/15 19:30:47;;;;;;;;;;;;;;;;;;10204615;28;20500;-76
2024/03/15 19:35:56;;;;;;;15.10;5.88;;;;;;;;;;10217963;28;19938;-78
2024/03/15 19:41:02;;;;;;;6.35;2.53;;;;;;;;;;10198050;28;20499;-76
2024/03/15 19:46:09;;;;;;;3.15;1.65;;;;;;;;;;10185215;28;20139;-77
2024/03/15 19:51:15;;;;;;;3.97;2.50;;;;;;;;;;10186353;28;20062;-75
2024/03/15 19:56:21;;;;;;;4.88;2.22;;;;;;;;;;10185539;28;20054;-74
2024/03/15 20:01:25;;;;;;;4.88;1.80;;;;;;;;;;10195994;28;20393;-77
2024/03/15 20:06:29;;;;;;;5.97;3.00;;;;;;;;;;10202776;28;20090;-77
2024/03/15 20:11:34;;;;;;;7.15;3.25;;;;;;;;;;10197745;28;20055;-77
2024/03/15 20:16:38;;;;;;;3.05;1.60;;;;;;;;;;10195178;28;20039;-75
2024/03/15 20:21:44;;;;;;;3.90;2.13;;;;;;;;;;10180243;28;20109;-75
2024/03/15 20:26:49;;;;;;;6.13;2.67;;;;;;;;;;10198980;28;20243;-76
2024/03/15 20:31:53;;;;;;;8.85;3.13;;;;;;;;;;10194833;28;20106;-76
2024/03/15 20:36:56;;;;;;;6.60;2.55;;;;;;;;;;10197623;28;20523;-76
2024/03/15 20:42:00;;;;;;;6.30;2.40;;;;;;;;;;10197518;28;20535;-75
2024/03/15 20:47:06;;;;;;;4.97;2.28;;;;;;;;;;10198408;28;20035;-77
2024/03/15 20:52:10;;;;;;;13.43;3.15;;;;;;;;;;10182682;28;20110;-76
2024/03/15 20:57:18;;;;;;;5.40;1.73;;;;;;;;;;10198646;28;20244;-76
2024/03/15 21:02:23;;;;;;;6.43;1.83;;;;;;;;;;10210248;28;20134;-77
2024/03/15 21:07:26;;;;;;;;;;;;;;;;;;10202273;28;20049;-78
2024/03/15 21:12:29;;;;;;;4.10;2.10;;;;;;;;;;10209629;28;19926;-78
2024/03/15 21:17:32;;;;;;;2.47;1.30;;;;;;;;;;10195480;28;20488;-76
2024/03/15 21:22:35;;;;;;;6.30;2.30;;;;;;;;;;10197557;28;20386;-76
2024/03/15 21:27:38;;;;;;;5.32;2.50;;;;;;;;;;10195328;28;20503;-75
2024/03/15 21:32:42;;;;;;;5.15;2.10;;;;;;;;;;10198427;28;20063;-75
2024/03/15 21:37:45;;;;;;;;;;;;;;;;;;10208609;28;20095;-75
2024/03/15 21:42:54;;;;;;;5.55;2.28;;;;;;;;;;10201855;28;19938;-76
2024/03/15 21:48:02;;;;;;;3.75;2.00;;;;;;;;;;10198912;28;20048;-79
2024/03/15 21:53:13;;;;;;;3.13;1.33;;;;;;;;;;10196481;28;20047;-77
2024/03/15 21:58:16;;;;;;;8.75;3.58;;;;;;;;;;10200168;28;20125;-76
2024/03/15 22:03:22;;;;;;;5.45;2.15;;;;;;;;;;10197974;28;20047;-76
2024/03/15 22:08:26;;;;;;;4.93;2.55;;;;;;;;;;10184307;28;20040;-77
2024/03/15 22:13:31;;;;;;;5.35;1.85;;;;;;;;;;10182158;28;20580;-75
2024/03/15 22:18:37;;;;;;;3.40;1.27;;;;;;;;;;10203454;28;20445;-76
2024/03/15 22:23:45;;;;;;;2.25;1.27;;;;;;;;;;10206613;28;20441;-76
2024/03/15 22:28:49;;;;;;;1.73;1.23;;;;;;;;;;10203029;28;20039;-78
2024/03/15 22:33:52;;;;;;;3.97;1.30;;;;;;;;;;10188286;28;20127;-76
2024/03/15 22:38:57;;;;;;;3.40;1.23;;;;;;;;;;10205913;28;20098;-77
2024/03/15 22:44:00;;;;;;;2.20;1.30;;;;;;;;;;10188166;28;21062;-76
2024/03/15 22:49:03;;;;;;;3.20;1.10;;;;;;;;;;10198475;28;20051;-78
2024/03/15 22:54:09;;;;;;;2.03;0.70;;;;;;;;;;10202494;28;20477;-76
2024/03/15 22:59:12;;;;;;;3.08;1.25;;;;;;;;;;10202075;28;20043;-78
2024/03/15 23:04:15;;;;;;;1.33;0.80;;;;;;;;;;10205350;28;20125;-78
2024/03/15 23:09:22;;;;;;;0.77;0.50;;;;;;;;;;10200031;28;20073;-77
2024/03/15 23:14:28;;;;;;;1.92;0.70;;;;;;;;;;10203720;28;20416;-76
2024/03/15 23:19:33;;;;;;;0.75;0.68;;;;;;;;;;10203879;28;20052;-76
2024/03/15 23:24:37;;;;;;;1.33;0.60;;;;;;;;;;10202033;28;20377;-76
2024/03/15 23:29:41;;;;;;;0.68;0.40;;;;;;;;;;10198437;28;20129;-76
2024/03/15 23:34:44;;;;;;;;;;;;;;;;;;10200682;28;20075;-76
2024/03/15 23:39:47;;;;;;;2.95;0.60;;;;;;;;;;10217392;28;19930;-76
2024/03/15 23:44:50;;;;;;;0.97;0.40;;;;;;;;;;10200011;28;20035;-76
2024/03/15 23:49:55;;;;;;;0.45;0.40;;;;;;;;;;10201694;28;20106;-77
2024/03/15 23:54:58;;;;;;;1.70;0.80;;;;;;;;;;10198900;28;20510;-75
